createdAt,value
2023-01-19T00:01:44.623Z,2.59
2023-01-19T00:04:13.074Z,2.58
2023-01-19T00:06:42.837Z,2.62
2023-01-19T00:09:11.204Z,2.62
2023-01-19T00:11:39.977Z,2.64
2023-01-19T00:14:08.407Z,2.65
2023-01-19T00:16:37.559Z,2.67
2023-01-19T00:19:06.139Z,2.66
2023-01-19T00:21:34.630Z,2.69
2023-01-19T00:24:04.501Z,2.72
2023-01-19T00:26:32.842Z,2.74
2023-01-19T00:29:01.234Z,2.72
2023-01-19T00:31:30.146Z,2.72
2023-01-19T00:33:58.771Z,2.77
2023-01-19T00:36:27.215Z,2.79
2023-01-19T00:38:55.630Z,2.81
2023-01-19T00:41:39.955Z,2.83
2023-01-19T00:44:08.344Z,2.84
2023-01-19T00:46:36.689Z,2.84
2023-01-19T00:49:05.566Z,2.84
2023-01-19T00:51:34.047Z,2.86
2023-01-19T00:54:05.060Z,2.86
2023-01-19T00:56:36.166Z,2.84
2023-01-19T00:59:05.218Z,2.87
2023-01-19T01:01:45.878Z,2.88
2023-01-19T01:04:14.845Z,2.92
2023-01-19T01:06:43.232Z,2.97
2023-01-19T01:09:12.920Z,3.01
2023-01-19T01:11:43.882Z,3.03
2023-01-19T01:14:14.084Z,3.06
2023-01-19T01:16:42.811Z,3.08
2023-01-19T01:19:11.397Z,3.09
2023-01-19T01:21:40.054Z,3.11
2023-01-19T01:24:09.906Z,3.09
2023-01-19T01:26:38.275Z,3.10
2023-01-19T01:29:08.725Z,3.11
2023-01-19T01:31:37.332Z,3.12
2023-01-19T01:34:05.816Z,3.15
2023-01-19T01:36:34.125Z,3.17
2023-01-19T01:39:02.779Z,3.21
2023-01-19T01:41:31.347Z,3.20
2023-01-19T01:44:01.864Z,3.21
2023-01-19T01:46:33.353Z,3.23
2023-01-19T01:49:08.787Z,3.25
2023-01-19T01:51:42.564Z,3.27
2023-01-19T01:54:18.551Z,3.28
2023-01-19T01:56:50.298Z,3.26
2023-01-19T01:59:26.841Z,3.26
2023-01-19T02:02:16.864Z,3.24
2023-01-19T02:04:50.200Z,3.24
2023-01-19T02:07:44.324Z,3.27
2023-01-19T02:10:30.233Z,3.27
2023-01-19T02:13:17.353Z,3.26
2023-01-19T02:15:45.858Z,3.27
2023-01-19T02:18:16.015Z,3.20
2023-01-19T02:20:54.780Z,3.14
2023-01-19T02:23:38.286Z,3.14
2023-01-19T02:26:09.739Z,3.14
2023-01-19T02:28:42.295Z,3.14
2023-01-19T02:31:11.782Z,3.14
2023-01-19T02:33:40.283Z,3.17
2023-01-19T02:36:11.768Z,3.16
2023-01-19T02:38:45.130Z,3.12
2023-01-19T02:41:19.085Z,3.14
2023-01-19T02:43:49.115Z,3.12
2023-01-19T02:46:18.218Z,3.11
2023-01-19T02:48:48.921Z,3.06
2023-01-19T02:51:19.488Z,3.02
2023-01-19T02:54:34.957Z,3.00
2023-01-19T02:57:24.823Z,3.01
2023-01-19T03:00:16.014Z,3.05
2023-01-19T03:02:59.831Z,3.08
2023-01-19T03:05:53.853Z,3.13
2023-01-19T03:08:35.488Z,3.17
2023-01-19T03:11:07.472Z,3.20
2023-01-19T03:13:45.952Z,3.22
2023-01-19T03:16:22.818Z,3.23
2023-01-19T03:18:56.602Z,3.25
2023-01-19T03:21:28.844Z,3.23
2023-01-19T03:24:03.225Z,3.24
2023-01-19T03:26:39.829Z,3.25
2023-01-19T03:29:14.205Z,3.26
2023-01-19T03:31:46.146Z,3.27
2023-01-19T03:34:17.145Z,3.26
2023-01-19T03:36:52.381Z,3.28
2023-01-19T03:39:24.948Z,3.27
2023-01-19T03:41:58.574Z,3.24
2023-01-19T03:44:30.361Z,3.25
2023-01-19T03:47:00.325Z,3.25
2023-01-19T03:49:31.607Z,3.24
2023-01-19T03:52:00.657Z,3.21
2023-01-19T03:54:29.820Z,3.18
2023-01-19T03:56:59.638Z,3.21
2023-01-19T03:59:27.940Z,3.17
2023-01-19T04:01:56.364Z,3.15
2023-01-19T04:04:25.643Z,3.11
2023-01-19T04:06:54.156Z,3.05
2023-01-19T04:09:22.583Z,3.01
2023-01-19T04:11:51.493Z,2.99
2023-01-19T04:14:21.672Z,2.94
2023-01-19T04:16:50.192Z,2.90
2023-01-19T04:19:18.552Z,2.88
2023-01-19T04:21:48.917Z,2.85
2023-01-19T04:24:17.252Z,2.84
2023-01-19T04:26:45.648Z,2.79
2023-01-19T04:29:14.518Z,2.76
2023-01-19T04:31:44.538Z,2.76
2023-01-19T04:34:12.934Z,2.76
2023-01-19T04:36:41.540Z,2.75
2023-01-19T04:39:10.471Z,2.78
2023-01-19T04:41:38.987Z,2.74
2023-01-19T04:44:07.700Z,2.69
2023-01-19T04:46:36.272Z,2.66
2023-01-19T04:49:06.035Z,2.64
2023-01-19T04:51:34.441Z,2.60
2023-01-19T04:54:02.813Z,2.60
2023-01-19T04:56:31.527Z,2.57
2023-01-19T04:58:59.863Z,2.60
2023-01-19T05:01:28.970Z,2.57
2023-01-19T05:04:01.153Z,2.59
2023-01-19T05:06:30.920Z,2.60
2023-01-19T05:08:59.409Z,2.58
2023-01-19T05:11:30.456Z,2.57
2023-01-19T05:13:58.816Z,2.58
2023-01-19T05:16:27.241Z,2.56
2023-01-19T05:18:55.659Z,2.55
2023-01-19T05:21:24.000Z,2.52
2023-01-19T05:23:53.865Z,2.49
2023-01-19T05:26:22.225Z,2.46
2023-01-19T05:28:51.014Z,2.45
2023-01-19T05:31:19.737Z,2.44
2023-01-19T05:33:48.298Z,2.44
2023-01-19T05:36:16.670Z,2.44
2023-01-19T05:38:45.016Z,2.42
2023-01-19T05:41:15.281Z,2.45
2023-01-19T05:43:43.639Z,2.45
2023-01-19T05:46:12.049Z,2.44
2023-01-19T05:48:40.688Z,2.45
2023-01-19T05:51:09.225Z,2.45
2023-01-19T05:53:37.585Z,2.46
2023-01-19T05:56:09.394Z,2.42
2023-01-19T05:58:40.448Z,2.42
2023-01-19T06:01:10.897Z,2.44
2023-01-19T06:03:39.947Z,2.45
2023-01-19T06:06:08.874Z,2.46
2023-01-19T06:08:37.495Z,2.46
2023-01-19T06:11:08.489Z,2.47
2023-01-19T06:13:41.354Z,2.46
2023-01-19T06:16:11.792Z,2.46
2023-01-19T06:18:40.645Z,2.47
2023-01-19T06:21:14.468Z,2.47
2023-01-19T06:23:43.173Z,2.50
2023-01-19T06:26:11.692Z,2.50
2023-01-19T06:28:41.412Z,2.50
2023-01-19T06:31:09.927Z,2.51
2023-01-19T06:33:38.528Z,2.50
2023-01-19T06:36:08.039Z,2.53
2023-01-19T06:38:36.548Z,2.56
2023-01-19T06:41:05.107Z,2.59
2023-01-19T06:43:33.566Z,2.62
2023-01-19T06:46:04.222Z,2.64
2023-01-19T06:48:32.692Z,2.69
2023-01-19T06:51:01.091Z,2.71
2023-01-19T06:53:30.374Z,2.75
2023-01-19T06:56:03.956Z,2.78
2023-01-19T06:58:34.876Z,2.82
2023-01-19T07:01:06.573Z,2.84
2023-01-19T07:03:36.783Z,2.86
2023-01-19T07:06:07.658Z,2.85
2023-01-19T07:08:37.790Z,2.82
2023-01-19T07:11:25.279Z,2.79
2023-01-19T07:13:57.158Z,2.80
2023-01-19T07:16:27.082Z,2.78
2023-01-19T07:18:55.669Z,2.78
2023-01-19T07:21:24.306Z,2.76
2023-01-19T07:23:54.841Z,2.76
2023-01-19T07:26:25.318Z,2.81
2023-01-19T07:28:53.954Z,2.83
2023-01-19T07:31:22.623Z,2.84
2023-01-19T07:33:52.542Z,2.84
2023-01-19T07:36:21.036Z,2.84
2023-01-19T07:38:49.402Z,2.86
2023-01-19T07:41:18.331Z,2.89
2023-01-19T07:43:46.768Z,2.90
2023-01-19T07:46:15.168Z,2.90
2023-01-19T07:48:44.553Z,2.88
2023-01-19T07:51:18.089Z,2.86
2023-01-19T07:53:46.912Z,2.84
2023-01-19T07:56:15.325Z,2.81
2023-01-19T07:58:43.914Z,2.83
2023-01-19T08:01:14.506Z,2.83
2023-01-19T08:03:43.107Z,2.83
2023-01-19T08:06:23.613Z,2.84
2023-01-19T08:08:52.533Z,2.86
2023-01-19T08:11:21.390Z,2.89
2023-01-19T08:13:49.767Z,2.94
2023-01-19T08:16:18.284Z,2.94
2023-01-19T08:18:47.172Z,2.89
2023-01-19T08:21:17.073Z,2.86
2023-01-19T08:23:45.979Z,2.83
2023-01-19T08:26:27.414Z,2.80
2023-01-19T08:28:57.715Z,2.78
2023-01-19T08:31:26.824Z,2.76
2023-01-19T08:33:55.600Z,2.78
2023-01-19T08:36:25.609Z,2.81
2023-01-19T08:38:54.419Z,2.80
2023-01-19T08:41:22.964Z,2.84
2023-01-19T08:43:51.825Z,2.85
2023-01-19T08:46:22.047Z,2.84
2023-01-19T08:48:51.020Z,2.84
2023-01-19T08:51:19.841Z,2.87
2023-01-19T08:53:49.794Z,2.86
2023-01-19T08:56:20.583Z,2.86
2023-01-19T08:58:59.471Z,2.86
2023-01-19T09:01:37.139Z,2.90
2023-01-19T09:04:07.005Z,2.88
2023-01-19T09:06:35.635Z,2.88
2023-01-19T09:09:05.869Z,2.86
2023-01-19T09:11:35.160Z,2.85
2023-01-19T09:14:05.764Z,2.84
2023-01-19T09:16:34.468Z,2.86
2023-01-19T09:19:03.105Z,2.82
2023-01-19T09:21:31.555Z,2.77
2023-01-19T09:24:00.039Z,2.71
2023-01-19T09:26:31.634Z,2.72
2023-01-19T09:29:01.688Z,2.72
2023-01-19T09:31:30.185Z,2.77
2023-01-19T09:33:58.745Z,2.79
2023-01-19T09:36:27.172Z,2.81
2023-01-19T09:38:55.630Z,2.82
2023-01-19T09:41:26.149Z,2.78
2023-01-19T09:44:00.661Z,2.76
2023-01-19T09:46:36.248Z,2.75
2023-01-19T09:49:12.026Z,2.76
2023-01-19T09:51:46.135Z,2.76
2023-01-19T09:54:16.994Z,2.79
2023-01-19T09:56:46.474Z,2.80
2023-01-19T09:59:26.413Z,2.81
2023-01-19T10:02:15.995Z,2.82
2023-01-19T10:04:51.104Z,2.85
2023-01-19T10:07:34.216Z,2.85
2023-01-19T10:10:17.259Z,2.84
2023-01-19T10:13:05.337Z,2.86
2023-01-19T10:15:47.291Z,2.84
2023-01-19T10:18:21.220Z,2.83
2023-01-19T10:20:54.465Z,2.82
2023-01-19T10:23:42.699Z,2.83
2023-01-19T10:26:17.859Z,2.85
2023-01-19T10:28:50.879Z,2.83
2023-01-19T10:31:25.134Z,2.84
2023-01-19T10:33:54.612Z,2.84
2023-01-19T10:36:28.907Z,2.84
2023-01-19T10:38:57.310Z,2.83
2023-01-19T10:41:32.805Z,2.79
2023-01-19T10:44:05.468Z,2.78
2023-01-19T10:46:43.875Z,2.75
2023-01-19T10:49:27.614Z,2.71
2023-01-19T10:51:57.501Z,2.72
2023-01-19T10:54:27.479Z,2.70
2023-01-19T10:56:59.025Z,2.72
2023-01-19T10:59:37.381Z,2.70
2023-01-19T11:02:21.458Z,2.70
2023-01-19T11:04:53.192Z,2.74
2023-01-19T11:07:23.967Z,2.80
2023-01-19T11:10:10.982Z,2.86
2023-01-19T11:12:43.435Z,2.99
2023-01-19T11:15:18.069Z,3.04
2023-01-19T11:17:48.673Z,3.11
2023-01-19T11:20:23.919Z,3.18
2023-01-19T11:23:07.325Z,3.17
2023-01-19T11:25:37.769Z,3.13
2023-01-19T11:28:07.212Z,3.12
2023-01-19T11:30:37.176Z,3.14
2023-01-19T11:33:07.852Z,3.14
2023-01-19T11:35:39.928Z,3.16
2023-01-19T11:38:25.875Z,3.25
2023-01-19T11:40:58.133Z,3.29
2023-01-19T11:43:47.473Z,3.33
2023-01-19T11:46:17.954Z,3.37
2023-01-19T11:48:56.692Z,3.37
2023-01-19T11:51:29.684Z,3.39
2023-01-19T11:53:58.221Z,3.40
2023-01-19T11:56:30.302Z,3.43
2023-01-19T11:58:59.033Z,3.43
2023-01-19T12:01:32.558Z,3.47
2023-01-19T12:04:08.461Z,3.48
2023-01-19T12:06:40.956Z,3.51
2023-01-19T12:09:16.315Z,3.56
2023-01-19T12:11:50.079Z,3.59
2023-01-19T12:14:26.804Z,3.63
2023-01-19T12:16:59.370Z,3.63
2023-01-19T12:19:43.872Z,3.62
2023-01-19T12:22:17.357Z,3.60
2023-01-19T12:24:56.251Z,3.59
2023-01-19T12:27:39.483Z,3.56
2023-01-19T12:30:18.112Z,3.59
2023-01-19T12:32:46.679Z,3.58
2023-01-19T12:35:57.640Z,3.61
2023-01-19T12:38:41.268Z,3.57
2023-01-19T12:41:30.025Z,3.55
2023-01-19T12:44:22.690Z,3.56
2023-01-19T12:46:55.711Z,3.55
2023-01-19T12:49:31.744Z,3.53
2023-01-19T12:52:30.649Z,3.56
2023-01-19T12:55:05.161Z,3.58
2023-01-19T12:57:40.195Z,3.59
2023-01-19T13:00:43.396Z,3.61
2023-01-19T13:03:58.881Z,3.64
2023-01-19T13:07:10.315Z,3.66
2023-01-19T13:09:42.736Z,3.66
2023-01-19T13:12:29.072Z,3.66
2023-01-19T13:15:29.978Z,3.68
2023-01-19T13:17:59.042Z,3.66
2023-01-19T13:20:33.184Z,3.69
2023-01-19T13:23:25.199Z,3.67
2023-01-19T13:26:04.942Z,3.69
2023-01-19T13:28:43.957Z,3.71
2023-01-19T13:31:14.595Z,3.72
2023-01-19T13:33:54.041Z,3.66
2023-01-19T13:36:29.277Z,3.66
2023-01-19T13:39:00.405Z,3.66
2023-01-19T13:41:34.133Z,3.63
2023-01-19T13:44:08.376Z,3.58
2023-01-19T13:46:39.501Z,3.56
2023-01-19T13:49:20.101Z,3.51
2023-01-19T13:52:05.046Z,3.50
2023-01-19T13:54:33.748Z,3.47
2023-01-19T13:57:03.647Z,3.44
2023-01-19T13:59:32.258Z,3.38
2023-01-19T14:02:13.692Z,3.38
2023-01-19T14:04:44.010Z,3.40
2023-01-19T14:07:26.345Z,3.36
2023-01-19T14:10:06.115Z,3.39
2023-01-19T14:12:43.542Z,3.41
2023-01-19T14:15:17.053Z,3.42
2023-01-19T14:17:45.455Z,3.42
2023-01-19T14:20:29.723Z,3.39
2023-01-19T14:22:58.508Z,3.39
2023-01-19T14:25:32.625Z,3.35
2023-01-19T14:28:31.049Z,3.37
2023-01-19T14:31:02.647Z,3.39
2023-01-19T14:33:46.158Z,3.39
2023-01-19T14:36:30.731Z,3.38
2023-01-19T14:39:02.336Z,3.39
2023-01-19T14:41:39.094Z,3.40
2023-01-19T14:44:12.840Z,3.41
2023-01-19T14:46:47.948Z,3.42
2023-01-19T14:49:22.798Z,3.45
2023-01-19T14:51:51.959Z,3.46
2023-01-19T14:54:30.704Z,3.48
2023-01-19T14:56:59.084Z,3.50
2023-01-19T14:59:31.843Z,3.46
2023-01-19T15:02:01.013Z,3.46
2023-01-19T15:04:29.573Z,3.47
2023-01-19T15:06:58.323Z,3.45
2023-01-19T15:09:26.935Z,3.47
2023-01-19T15:11:55.532Z,3.46
2023-01-19T15:14:24.034Z,3.50
2023-01-19T15:16:53.920Z,3.51
2023-01-19T15:19:22.388Z,3.51
2023-01-19T15:21:50.756Z,3.52
2023-01-19T15:24:22.150Z,3.55
2023-01-19T15:26:50.554Z,3.54
2023-01-19T15:29:24.706Z,3.53
2023-01-19T15:31:54.877Z,3.51
2023-01-19T15:34:23.471Z,3.53
2023-01-19T15:36:51.847Z,3.54
2023-01-19T15:39:20.736Z,3.55
2023-01-19T15:41:49.120Z,3.55
2023-01-19T15:44:17.628Z,3.56
2023-01-19T15:46:46.865Z,3.52
2023-01-19T15:49:16.861Z,3.48
2023-01-19T15:51:45.656Z,3.47
2023-01-19T15:54:15.575Z,3.47
2023-01-19T15:56:44.005Z,3.46
2023-01-19T15:59:12.552Z,3.45
2023-01-19T16:01:42.409Z,3.43
2023-01-19T16:04:13.197Z,3.42
2023-01-19T16:06:43.032Z,3.41
2023-01-19T16:09:16.868Z,3.36
2023-01-19T16:11:45.717Z,3.31
2023-01-19T16:14:15.553Z,3.27
2023-01-19T16:16:46.322Z,3.27
2023-01-19T16:19:16.831Z,3.22
2023-01-19T16:21:46.679Z,3.25
2023-01-19T16:24:15.369Z,3.23
2023-01-19T16:26:44.143Z,3.24
2023-01-19T16:29:15.015Z,3.23
2023-01-19T16:31:46.723Z,3.25
2023-01-19T16:34:16.521Z,3.24
2023-01-19T16:36:46.424Z,3.25
2023-01-19T16:39:17.085Z,3.23
2023-01-19T16:41:46.890Z,3.28
2023-01-19T16:44:17.783Z,3.31
2023-01-19T16:46:49.758Z,3.29
2023-01-19T16:49:21.218Z,3.29
2023-01-19T16:51:52.885Z,3.29
2023-01-19T16:54:25.983Z,3.25
2023-01-19T16:56:56.008Z,3.24
2023-01-19T16:59:27.078Z,3.28
2023-01-19T17:01:56.071Z,3.31
2023-01-19T17:04:25.065Z,3.35
2023-01-19T17:06:55.516Z,3.37
2023-01-19T17:09:24.431Z,3.37
2023-01-19T17:11:53.462Z,3.39
2023-01-19T17:14:25.600Z,3.41
2023-01-19T17:16:54.022Z,3.42
2023-01-19T17:19:23.089Z,3.43
2023-01-19T17:21:51.715Z,3.44
2023-01-19T17:24:21.516Z,3.45
2023-01-19T17:26:50.027Z,3.46
2023-01-19T17:29:21.457Z,3.45
2023-01-19T17:31:52.251Z,3.42
2023-01-19T17:34:20.790Z,3.39
2023-01-19T17:36:52.464Z,3.37
2023-01-19T17:39:23.573Z,3.34
2023-01-19T17:41:52.053Z,3.32
2023-01-19T17:44:21.029Z,3.28
2023-01-19T17:46:49.414Z,3.25
2023-01-19T17:49:17.866Z,3.24
2023-01-19T17:51:46.427Z,3.25
2023-01-19T17:54:14.995Z,3.26
2023-01-19T17:56:47.899Z,3.27
2023-01-19T17:59:16.358Z,3.29
2023-01-19T18:01:46.468Z,3.32
2023-01-19T18:04:15.251Z,3.36
2023-01-19T18:06:44.147Z,3.37
2023-01-19T18:09:13.439Z,3.39
2023-01-19T18:11:42.841Z,3.41
2023-01-19T18:14:12.605Z,3.40
2023-01-19T18:16:41.169Z,3.41
2023-01-19T18:19:09.590Z,3.38
2023-01-19T18:21:38.182Z,3.35
2023-01-19T18:24:07.778Z,3.34
2023-01-19T18:26:37.686Z,3.26
2023-01-19T18:29:06.324Z,3.25
2023-01-19T18:31:36.260Z,3.20
2023-01-19T18:34:05.103Z,3.14
2023-01-19T18:36:34.249Z,3.11
2023-01-19T18:39:03.371Z,3.10
2023-01-19T18:41:31.967Z,3.11
2023-01-19T18:44:00.673Z,3.13
2023-01-19T18:46:30.600Z,3.11
2023-01-19T18:49:00.745Z,3.10
2023-01-19T18:51:29.301Z,3.08
2023-01-19T18:53:58.690Z,3.11
2023-01-19T18:56:27.646Z,3.08
2023-01-19T18:58:56.612Z,3.09
2023-01-19T19:01:27.537Z,3.05
2023-01-19T19:03:56.994Z,3.10
2023-01-19T19:06:29.007Z,3.11
2023-01-19T19:08:59.762Z,3.14
2023-01-19T19:11:29.387Z,3.11
2023-01-19T19:14:02.005Z,3.17
2023-01-19T19:16:35.090Z,3.17
2023-01-19T19:19:04.269Z,3.17
2023-01-19T19:21:34.523Z,3.18
2023-01-19T19:24:03.008Z,3.19
2023-01-19T19:26:32.437Z,3.21
2023-01-19T19:29:04.868Z,3.19
2023-01-19T19:31:33.742Z,3.17
2023-01-19T19:34:02.467Z,3.11
2023-01-19T19:36:33.659Z,3.09
2023-01-19T19:39:03.836Z,3.06
2023-01-19T19:41:33.349Z,3.09
2023-01-19T19:44:05.047Z,3.07
2023-01-19T19:46:35.313Z,3.05
2023-01-19T19:49:03.786Z,3.06
2023-01-19T19:51:32.156Z,3.04
2023-01-19T19:54:02.866Z,3.08
2023-01-19T19:56:34.384Z,3.05
2023-01-19T19:59:02.861Z,3.09
2023-01-19T20:01:34.011Z,3.11
2023-01-19T20:04:08.179Z,3.13
2023-01-19T20:06:39.935Z,3.16
2023-01-19T20:09:12.826Z,3.14
2023-01-19T20:11:42.852Z,3.12
2023-01-19T20:14:14.435Z,3.11
2023-01-19T20:16:43.634Z,3.09
2023-01-19T20:19:12.767Z,3.09
2023-01-19T20:21:43.312Z,3.07
2023-01-19T20:24:16.429Z,3.07
2023-01-19T20:26:47.511Z,3.05
2023-01-19T20:29:16.522Z,3.07
2023-01-19T20:31:47.554Z,3.08
2023-01-19T20:34:20.080Z,3.07
2023-01-19T20:36:50.323Z,3.04
2023-01-19T20:39:21.171Z,3.08
2023-01-19T20:41:51.354Z,3.05
2023-01-19T20:44:23.592Z,3.11
2023-01-19T20:46:52.748Z,3.12
2023-01-19T20:49:21.475Z,3.05
2023-01-19T20:51:52.079Z,3.06
2023-01-19T20:54:26.356Z,3.02
2023-01-19T20:56:55.401Z,3.04
2023-01-19T20:59:24.610Z,3.02
2023-01-19T21:01:53.524Z,3.00
2023-01-19T21:04:22.508Z,3.00
2023-01-19T21:06:50.881Z,3.00
2023-01-19T21:09:19.678Z,3.01
2023-01-19T21:11:49.689Z,3.03
2023-01-19T21:14:18.031Z,3.04
2023-01-19T21:16:46.556Z,3.03
2023-01-19T21:19:15.044Z,3.04
2023-01-19T21:21:43.853Z,2.99
2023-01-19T21:24:12.726Z,2.97
2023-01-19T21:26:42.889Z,2.96
2023-01-19T21:29:14.083Z,2.94
2023-01-19T21:31:43.090Z,2.92
2023-01-19T21:34:11.681Z,2.93
2023-01-19T21:36:40.102Z,2.91
2023-01-19T21:39:09.174Z,2.94
2023-01-19T21:41:40.833Z,2.90
2023-01-19T21:44:13.817Z,2.95
2023-01-19T21:46:42.734Z,2.93
2023-01-19T21:49:18.500Z,2.94
2023-01-19T21:51:48.112Z,2.92
2023-01-19T21:54:16.918Z,2.93
2023-01-19T21:56:45.418Z,2.92
2023-01-19T21:59:16.768Z,2.89
2023-01-19T22:01:48.731Z,2.86
2023-01-19T22:04:19.569Z,2.88
2023-01-19T22:06:48.455Z,2.88
2023-01-19T22:09:17.073Z,2.86
2023-01-19T22:11:45.536Z,2.87
2023-01-19T22:14:15.273Z,2.88
2023-01-19T22:16:43.843Z,2.89
2023-01-19T22:19:14.490Z,2.89
2023-01-19T22:21:42.954Z,2.89
2023-01-19T22:24:12.899Z,2.91
2023-01-19T22:26:41.436Z,2.92
2023-01-19T22:29:11.237Z,2.93
2023-01-19T22:31:41.549Z,2.93
2023-01-19T22:34:10.908Z,2.93
2023-01-19T22:36:42.488Z,2.89
2023-01-19T22:39:12.913Z,2.86
2023-01-19T22:41:44.047Z,2.85
2023-01-19T22:44:14.708Z,2.86
2023-01-19T22:46:44.598Z,2.86
2023-01-19T22:49:15.977Z,2.85
2023-01-19T22:51:45.673Z,2.80
2023-01-19T22:54:14.164Z,2.81
2023-01-19T22:56:43.209Z,2.80
2023-01-19T22:59:11.587Z,2.81
2023-01-19T23:01:44.424Z,2.77
2023-01-19T23:04:17.623Z,2.74
2023-01-19T23:06:50.453Z,2.70
2023-01-19T23:09:19.806Z,2.62
2023-01-19T23:11:52.981Z,2.60
2023-01-19T23:14:23.762Z,2.55
2023-01-19T23:16:53.783Z,2.49
2023-01-19T23:19:22.258Z,2.44
2023-01-19T23:21:53.317Z,2.39
2023-01-19T23:24:21.807Z,2.37
2023-01-19T23:26:50.767Z,2.39
2023-01-19T23:29:19.699Z,2.39
2023-01-19T23:31:50.610Z,2.41
2023-01-19T23:34:20.400Z,2.45
2023-01-19T23:36:48.789Z,2.49
2023-01-19T23:39:19.678Z,2.50
2023-01-19T23:41:48.480Z,2.51
2023-01-19T23:44:18.174Z,2.44
2023-01-19T23:46:46.937Z,2.44
2023-01-19T23:49:15.634Z,2.38
2023-01-19T23:51:45.432Z,2.33
2023-01-19T23:54:13.894Z,2.31
2023-01-19T23:56:43.182Z,2.31
2023-01-19T23:59:14.491Z,2.31
